Time;durP1;ratioP1;P1;durP2;ratioP2;P2;SDS_P1;SDS_P2;PMS_P1;PMS_P2;Temp;Humidity;BMP_temperature;BMP_pressure;BME280_temperature;BME280_humidity;BME280_pressure;Samples;Min_cycle;Max_cycle;Signal;HPM_P1;HPM_P2
2023/06/13 00:01:25;;;;;;;4.37;4.17;;;23.30;45.70;;;;;;5038095;28;20225;-70
2023/06/13 00:03:53;;;;;;;4.17;3.97;;;23.30;45.70;;;;;;5040140;28;20822;-70
2023/06/13 00:06:19;;;;;;;4.10;3.90;;;23.30;45.70;;;;;;5033439;28;20321;-70
2023/06/13 00:08:44;;;;;;;3.80;3.60;;;23.30;45.80;;;;;;5040660;28;20941;-70
2023/06/13 00:11:10;;;;;;;3.57;3.40;;;23.30;45.70;;;;;;5029588;28;20221;-70
2023/06/13 00:13:39;;;;;;;4.60;4.40;;;23.30;45.70;;;;;;5038479;28;20230;-70
2023/06/13 00:16:06;;;;;;;4.23;4.03;;;23.30;45.70;;;;;;5030730;28;21002;-70
2023/06/13 00:18:32;;;;;;;3.80;3.60;;;23.30;45.80;;;;;;5029163;28;20475;-70
2023/06/13 00:20:58;;;;;;;3.67;3.47;;;23.30;45.80;;;;;;5033070;28;21219;-69
2023/06/13 00:23:25;;;;;;;4.13;3.93;;;23.30;45.70;;;;;;5034345;28;20237;-69
2023/06/13 00:25:51;;;;;;;4.07;3.87;;;23.30;45.80;;;;;;5035593;28;20543;-70
2023/06/13 00:28:17;;;;;;;4.17;3.97;;;23.30;45.80;;;;;;5032635;28;20490;-69
2023/06/13 00:30:43;;;;;;;3.67;3.47;;;23.30;45.70;;;;;;5032233;28;20498;-70
2023/06/13 00:33:10;;;;;;;4.00;3.80;;;23.30;45.80;;;;;;5054662;28;20459;-70
2023/06/13 00:35:36;;;;;;;3.90;3.70;;;23.30;45.80;;;;;;5031932;28;20479;-70
2023/06/13 00:38:02;;;;;;;3.70;3.50;;;23.30;45.70;;;;;;5036555;28;20526;-69
2023/06/13 00:40:28;;;;;;;4.47;4.27;;;23.30;45.70;;;;;;5027927;28;20225;-69
2023/06/13 00:42:55;;;;;;;3.83;3.40;;;23.30;45.70;;;;;;5037873;28;20431;-69
2023/06/13 00:45:23;;;;;;;3.70;3.50;;;23.30;45.70;;;;;;5033273;28;20218;-69
2023/06/13 00:48:01;;;;;;;3.87;3.67;;;23.30;45.80;;;;;;5036897;28;20463;-69
2023/06/13 00:50:31;;;;;;;4.20;4.00;;;23.30;45.80;;;;;;5036215;28;21033;-69
2023/06/13 00:53:02;;;;;;;3.73;3.53;;;23.30;45.80;;;;;;5041563;28;21009;-70
2023/06/13 00:55:28;;;;;;;3.70;3.50;;;23.30;45.70;;;;;;5039213;28;20834;-69
2023/06/13 00:57:58;;;;;;;4.17;3.97;;;23.30;45.80;;;;;;5036535;28;20467;-71
2023/06/13 01:00:25;;;;;;;3.60;3.40;;;23.30;45.70;;;;;;5051945;28;20470;-69
2023/06/13 01:02:55;;;;;;;4.17;3.97;;;23.30;45.70;;;;;;5035161;28;20505;-69
2023/06/13 01:05:26;;;;;;;3.70;3.50;;;23.30;45.70;;;;;;5036596;28;20470;-69
2023/06/13 01:07:53;;;;;;;4.00;3.80;;;23.30;45.70;;;;;;5039196;28;20459;-69
2023/06/13 01:10:21;;;;;;;4.00;3.80;;;23.30;45.80;;;;;;5035923;28;20462;-69
2023/06/13 01:13:15;;;;;;;3.77;3.57;;;23.30;45.70;;;;;;5032309;28;20447;-69
2023/06/13 01:16:28;;;;;;;3.60;3.40;;;23.30;45.70;;;;;;5025415;28;20475;-69
2023/06/13 01:18:57;;;;;;;4.00;3.80;;;23.30;45.70;;;;;;4934531;28;20467;-69
2023/06/13 01:21:24;;;;;;;3.80;3.60;;;23.30;45.80;;;;;;5022964;28;20472;-69
2023/06/13 01:24:12;;;;;;;3.60;3.40;;;23.30;45.80;;;;;;5036623;28;20996;-69
2023/06/13 01:26:52;;;;;;;3.70;3.40;;;23.30;45.70;;;;;;5037065;28;20461;-70
2023/06/13 01:29:19;;;;;;;3.73;3.53;;;23.30;45.70;;;;;;5035410;28;20469;-69
2023/06/13 01:31:48;;;;;;;3.80;3.60;;;23.30;45.70;;;;;;5037057;28;20455;-70
2023/06/13 01:34:15;;;;;;;3.07;2.97;;;23.30;45.80;;;;;;5036251;28;20549;-69
2023/06/13 01:36:41;;;;;;;3.83;3.63;;;23.30;45.70;;;;;;5037444;28;20997;-69
2023/06/13 01:39:07;;;;;;;4.20;4.00;;;23.30;45.70;;;;;;5033752;28;20522;-70
2023/06/13 01:41:33;;;;;;;3.70;3.50;;;23.30;45.70;;;;;;5033062;28;20218;-70
2023/06/13 01:44:00;;;;;;;4.37;4.17;;;23.30;45.70;;;;;;5038215;28;20466;-70
2023/06/13 01:46:30;;;;;;;4.07;3.87;;;23.30;45.70;;;;;;5036352;28;20229;-69
2023/06/13 01:49:05;;;;;;;4.00;3.80;;;23.30;45.70;;;;;;5027344;28;20458;-70
2023/06/13 01:51:55;;;;;;;4.20;4.00;;;23.30;45.70;;;;;;5034587;28;20473;-69
2023/06/13 01:54:22;;;;;;;3.70;3.50;;;23.30;45.70;;;;;;5034889;28;20930;-69
2023/06/13 01:56:52;;;;;;;3.80;3.60;;;23.30;45.70;;;;;;5035129;28;20811;-69
2023/06/13 01:59:22;;;;;;;3.97;3.77;;;23.30;45.70;;;;;;5035869;28;21823;-69
2023/06/13 02:01:48;;;;;;;3.40;3.30;;;23.30;45.70;;;;;;5034018;28;20462;-69
2023/06/13 02:04:15;;;;;;;3.90;3.70;;;23.30;45.70;;;;;;5026284;28;21025;-69
2023/06/13 02:06:40;;;;;;;3.80;3.60;;;23.30;45.70;;;;;;5034378;28;20458;-69
2023/06/13 02:09:06;;;;;;;4.20;4.00;;;23.30;45.70;;;;;;5036255;28;21958;-70
2023/06/13 02:11:32;;;;;;;3.60;3.40;;;23.30;45.70;;;;;;5051628;28;20293;-69
2023/06/13 02:13:57;;;;;;;3.57;3.27;;;23.30;45.70;;;;;;5037459;28;20593;-69
2023/06/13 02:16:25;;;;;;;3.30;3.20;;;23.30;45.70;;;;;;5038385;28;20237;-69
2023/06/13 02:18:51;;;;;;;3.87;3.67;;;23.30;45.70;;;;;;5030194;28;20349;-69
2023/06/13 02:21:17;;;;;;;3.90;3.70;;;23.30;45.70;;;;;;5036651;28;20510;-69
2023/06/13 02:23:42;;;;;;;3.73;3.53;;;23.20;45.70;;;;;;5035590;28;20543;-69
2023/06/13 02:26:08;;;;;;;3.60;3.40;;;23.30;45.60;;;;;;5036099;28;20222;-69
2023/06/13 02:28:34;;;;;;;3.70;3.50;;;23.20;45.60;;;;;;5038966;28;20296;-70
2023/06/13 02:31:00;;;;;;;3.83;3.63;;;23.30;45.60;;;;;;5036022;28;20226;-69
2023/06/13 02:33:26;;;;;;;3.87;3.67;;;23.20;45.60;;;;;;5036295;28;20533;-69
2023/06/13 02:35:51;;;;;;;3.70;3.50;;;23.30;45.70;;;;;;5031323;28;20263;-69
2023/06/13 02:38:18;;;;;;;3.60;3.40;;;23.30;45.60;;;;;;5036508;28;20234;-69
2023/06/13 02:40:44;;;;;;;3.30;3.20;;;23.20;45.60;;;;;;5033197;28;20234;-69
2023/06/13 02:43:10;;;;;;;3.27;3.07;;;23.30;45.60;;;;;;5037557;28;20573;-69
2023/06/13 02:45:35;;;;;;;3.97;3.77;;;23.20;45.60;;;;;;5035921;28;20811;-69
2023/06/13 02:48:01;;;;;;;3.70;3.43;;;23.30;45.60;;;;;;5031724;28;20678;-69
2023/06/13 02:50:27;;;;;;;3.60;3.40;;;23.30;45.60;;;;;;5035704;28;20246;-69
2023/06/13 02:52:52;;;;;;;4.10;3.80;;;23.30;45.70;;;;;;5038113;28;21329;-69
2023/06/13 02:55:18;;;;;;;3.70;3.50;;;23.30;45.60;;;;;;5039268;28;20637;-69
2023/06/13 02:57:45;;;;;;;3.87;3.67;;;23.20;45.60;;;;;;5038871;28;20340;-69
2023/06/13 03:00:13;;;;;;;3.77;3.57;;;23.20;45.60;;;;;;5043406;28;20690;-69
2023/06/13 03:02:38;;;;;;;3.40;3.20;;;23.20;45.60;;;;;;5039457;28;20989;-69
2023/06/13 03:05:14;;;;;;;4.20;3.90;;;23.20;45.50;;;;;;5035854;28;20506;-70
2023/06/13 03:07:46;;;;;;;3.70;3.50;;;23.30;45.60;;;;;;5038453;28;20704;-70
2023/06/13 03:10:12;;;;;;;3.03;2.93;;;23.20;45.60;;;;;;5041177;28;20965;-69
2023/06/13 03:12:39;;;;;;;3.73;3.53;;;23.20;45.60;;;;;;5036266;28;20516;-69
2023/06/13 03:15:06;;;;;;;3.57;3.37;;;23.20;45.50;;;;;;5039396;28;21120;-70
2023/06/13 03:17:32;;;;;;;3.80;3.60;;;23.20;45.50;;;;;;5043036;28;20499;-69
2023/06/13 03:19:58;;;;;;;3.43;3.23;;;23.20;45.60;;;;;;5035707;28;20519;-69
2023/06/13 03:22:24;;;;;;;3.40;3.27;;;23.20;45.50;;;;;;5038136;28;20242;-69
2023/06/13 03:24:50;;;;;;;3.90;3.70;;;23.20;45.50;;;;;;5042377;28;20236;-69
2023/06/13 03:27:15;;;;;;;3.60;3.40;;;23.20;45.50;;;;;;5033715;28;20562;-69
2023/06/13 03:29:42;;;;;;;3.40;3.20;;;23.30;45.60;;;;;;5034485;28;20493;-69
2023/06/13 03:32:11;;;;;;;3.77;3.57;;;23.20;45.50;;;;;;5036917;28;20234;-69
2023/06/13 03:34:40;;;;;;;3.80;3.60;;;23.20;45.50;;;;;;5036983;28;20471;-69
2023/06/13 03:37:09;;;;;;;4.00;3.80;;;23.30;45.50;;;;;;5040763;28;20454;-69
2023/06/13 03:39:35;;;;;;;3.53;3.33;;;23.20;45.50;;;;;;5032792;28;20737;-69
2023/06/13 03:42:01;;;;;;;3.40;3.20;;;23.20;45.50;;;;;;5041154;28;20490;-69
2023/06/13 03:44:28;;;;;;;3.27;3.13;;;23.20;45.40;;;;;;5037611;28;20222;-69
2023/06/13 03:46:55;;;;;;;3.53;3.37;;;23.20;45.40;;;;;;5038888;28;20929;-69
2023/06/13 03:49:24;;;;;;;3.70;3.50;;;23.20;45.40;;;;;;5040355;28;20486;-69
2023/06/13 03:51:51;;;;;;;3.83;3.60;;;23.20;45.40;;;;;;5040408;28;20455;-69
2023/06/13 03:54:17;;;;;;;3.93;3.60;;;23.20;45.40;;;;;;5036286;28;20451;-69
2023/06/13 03:56:42;;;;;;;3.93;3.73;;;23.20;45.30;;;;;;5035959;28;20871;-69
2023/06/13 03:59:08;;;;;;;3.73;3.53;;;23.20;45.20;;;;;;5036755;28;20475;-69
2023/06/13 04:01:34;;;;;;;3.03;2.93;;;23.20;45.10;;;;;;5032724;28;20684;-69
2023/06/13 04:03:59;;;;;;;4.13;3.93;;;23.20;45.00;;;;;;5031559;28;20210;-73
2023/06/13 04:06:28;;;;;;;3.90;3.70;;;23.20;44.90;;;;;;5035450;28;20245;-73
2023/06/13 04:08:54;;;;;;;3.80;3.60;;;23.20;44.80;;;;;;5036442;28;20229;-72
2023/06/13 04:11:20;;;;;;;3.87;3.67;;;23.20;44.60;;;;;;5037565;28;20501;-73
2023/06/13 04:13:45;;;;;;;4.20;4.00;;;23.20;44.40;;;;;;5036075;28;20218;-73
2023/06/13 04:16:11;;;;;;;3.67;3.47;;;23.20;44.10;;;;;;5032098;28;20712;-70
2023/06/13 04:18:37;;;;;;;3.87;3.67;;;23.20;43.90;;;;;;5038034;28;20217;-71
2023/06/13 04:21:09;;;;;;;3.83;3.63;;;23.30;43.70;;;;;;5033724;28;20279;-70
2023/06/13 04:23:34;;;;;;;4.10;3.80;;;23.30;43.50;;;;;;5036361;28;20221;-70
2023/06/13 04:26:03;;;;;;;3.90;3.70;;;23.30;43.30;;;;;;5033298;28;20475;-70
2023/06/13 04:28:29;;;;;;;4.17;3.87;;;23.30;43.10;;;;;;5040435;28;20229;-72
2023/06/13 04:30:56;;;;;;;4.30;4.00;;;23.30;43.00;;;;;;5037783;28;20953;-72
2023/06/13 04:33:24;;;;;;;3.90;3.70;;;23.30;42.80;;;;;;5039923;28;20466;-70
2023/06/13 04:35:49;;;;;;;4.70;3.90;;;23.30;42.70;;;;;;5043154;28;21023;-70
2023/06/13 04:38:21;;;;;;;4.13;3.93;;;23.30;42.60;;;;;;5032303;28;20475;-72
2023/06/13 04:40:50;;;;;;;3.23;3.03;;;23.30;42.60;;;;;;5036773;28;20327;-76
2023/06/13 04:43:15;;;;;;;3.70;3.50;;;23.30;42.60;;;;;;5038484;28;20458;-75
2023/06/13 04:45:43;;;;;;;4.27;3.73;;;23.30;42.60;;;;;;5037425;28;20809;-73
2023/06/13 04:48:13;;;;;;;3.90;3.70;;;23.30;42.60;;;;;;5038842;28;20341;-73
2023/06/13 04:50:41;;;;;;;3.93;3.63;;;23.30;42.60;;;;;;5041176;28;20442;-73
2023/06/13 04:53:07;;;;;;;4.20;3.30;;;23.30;42.60;;;;;;5043443;28;20451;-73
2023/06/13 04:55:37;;;;;;;3.60;3.40;;;23.30;42.70;;;;;;5043073;28;20486;-72
2023/06/13 04:58:03;;;;;;;3.93;3.73;;;23.30;42.70;;;;;;5038659;28;20621;-73
2023/06/13 05:00:29;;;;;;;3.80;3.60;;;23.30;42.80;;;;;;5040764;28;21036;-73
2023/06/13 05:02:55;;;;;;;3.43;3.23;;;23.30;42.90;;;;;;5034446;28;20245;-73
2023/06/13 05:05:22;;;;;;;3.53;3.33;;;23.30;43.00;;;;;;5037134;28;20716;-73
2023/06/13 05:07:49;;;;;;;3.70;3.50;;;23.30;43.10;;;;;;5033578;28;20516;-72
2023/06/13 05:10:15;;;;;;;3.40;3.20;;;23.30;43.10;;;;;;5037535;28;20470;-79
2023/06/13 05:12:41;;;;;;;3.70;3.50;;;23.30;43.20;;;;;;5036470;28;20440;-76
2023/06/13 05:15:07;;;;;;;3.40;3.20;;;23.30;43.30;;;;;;5034314;28;20462;-76
2023/06/13 05:17:33;;;;;;;3.13;2.93;;;23.30;43.30;;;;;;5039461;28;20225;-78
2023/06/13 05:19:59;;;;;;;3.87;3.67;;;23.30;43.40;;;;;;5037699;28;20901;-75
2023/06/13 05:22:25;;;;;;;4.30;4.00;;;23.30;43.40;;;;;;5036486;28;20661;-75
2023/06/13 05:24:50;;;;;;;3.80;3.60;;;23.30;43.40;;;;;;5035954;28;21454;-74
2023/06/13 05:27:16;;;;;;;3.80;3.60;;;23.30;43.50;;;;;;5035595;28;20650;-74
2023/06/13 05:29:42;;;;;;;3.70;3.50;;;23.30;43.40;;;;;;5033248;28;20221;-74
2023/06/13 05:32:08;;;;;;;3.60;3.40;;;23.30;43.50;;;;;;5036045;28;20674;-74
2023/06/13 05:34:33;;;;;;;3.30;3.20;;;23.30;43.50;;;;;;5040575;28;20312;-71
2023/06/13 05:37:00;;;;;;;3.10;2.90;;;23.30;43.60;;;;;;5040257;28;20853;-74
2023/06/13 05:39:26;;;;;;;4.17;3.87;;;23.30;43.60;;;;;;5035374;28;20637;-74
2023/06/13 05:41:51;;;;;;;3.60;3.40;;;23.30;43.60;;;;;;5039933;28;20530;-74
2023/06/13 05:44:17;;;;;;;3.87;3.67;;;23.30;43.60;;;;;;5035409;28;20250;-74
2023/06/13 05:46:42;;;;;;;3.90;3.70;;;23.30;43.70;;;;;;5036038;28;20308;-73
2023/06/13 05:49:08;;;;;;;4.27;3.97;;;23.30;43.70;;;;;;5033443;28;20743;-73
2023/06/13 05:51:33;;;;;;;3.67;3.47;;;23.30;43.70;;;;;;5037021;28;20217;-72
2023/06/13 05:53:59;;;;;;;3.40;3.20;;;23.30;43.70;;;;;;5041464;28;20287;-73
2023/06/13 05:56:25;;;;;;;3.37;3.17;;;23.30;43.70;;;;;;5037761;28;20214;-73
2023/06/13 05:58:51;;;;;;;3.50;3.30;;;23.30;43.70;;;;;;5038151;28;20245;-73
2023/06/13 06:01:18;;;;;;;3.60;3.40;;;23.30;43.80;;;;;;5038515;28;20463;-74
2023/06/13 06:03:44;;;;;;;3.60;3.40;;;23.30;43.80;;;;;;5036978;28;20547;-73
2023/06/13 06:06:10;;;;;;;3.53;3.33;;;23.30;43.80;;;;;;5034274;28;20478;-73
2023/06/13 06:08:35;;;;;;;3.67;3.37;;;23.30;43.80;;;;;;5039096;28;20237;-73
2023/06/13 06:11:01;;;;;;;3.50;3.30;;;23.30;43.80;;;;;;5031700;28;20252;-73
2023/06/13 06:13:26;;;;;;;3.43;3.23;;;23.30;43.90;;;;;;5037592;28;20249;-73
2023/06/13 06:15:52;;;;;;;3.80;3.60;;;23.30;44.00;;;;;;5038073;28;20268;-73
2023/06/13 06:18:20;;;;;;;3.30;3.10;;;23.30;43.90;;;;;;5034417;28;20752;-74
2023/06/13 06:20:46;;;;;;;3.73;3.53;;;23.30;44.00;;;;;;5031928;28;20718;-73
2023/06/13 06:23:13;;;;;;;3.70;3.40;;;23.30;44.00;;;;;;5035671;28;20443;-73
2023/06/13 06:25:39;;;;;;;4.40;4.10;;;23.30;44.00;;;;;;5036416;28;20252;-73
2023/06/13 06:28:04;;;;;;;4.00;3.70;;;23.30;44.00;;;;;;5051080;28;20504;-73
2023/06/13 06:30:30;;;;;;;3.70;3.50;;;23.30;44.00;;;;;;5036051;28;20230;-73
2023/06/13 06:32:55;;;;;;;3.87;3.57;;;23.30;44.00;;;;;;5033811;28;20226;-73
2023/06/13 06:35:21;;;;;;;4.20;3.53;;;23.30;44.00;;;;;;5033501;28;20313;-74
2023/06/13 06:37:47;;;;;;;3.43;3.23;;;23.30;44.00;;;;;;5034690;28;20237;-73
2023/06/13 06:40:12;;;;;;;3.90;3.60;;;23.30;44.00;;;;;;5034915;28;20221;-73
2023/06/13 06:42:38;;;;;;;3.87;3.67;;;23.30;44.10;;;;;;5041479;28;20665;-73
2023/06/13 06:45:05;;;;;;;3.80;3.60;;;23.30;44.10;;;;;;5041347;28;20740;-73
2023/06/13 06:47:30;;;;;;;3.93;3.63;;;23.30;44.10;;;;;;5040396;28;20257;-73
2023/06/13 06:49:56;;;;;;;4.27;3.87;;;23.30;44.10;;;;;;5037701;28;20567;-73
2023/06/13 06:52:21;;;;;;;3.17;2.97;;;23.40;44.20;;;;;;5031673;28;20242;-73
2023/06/13 06:54:47;;;;;;;3.90;3.70;;;23.30;44.10;;;;;;5041380;28;20272;-73
2023/06/13 06:57:12;;;;;;;3.53;3.33;;;23.30;44.10;;;;;;5041698;28;20241;-73
2023/06/13 06:59:38;;;;;;;3.37;3.17;;;23.40;44.20;;;;;;5038354;28;20222;-74
2023/06/13 07:02:04;;;;;;;3.70;3.50;;;23.40;44.20;;;;;;5039834;28;20226;-72
2023/06/13 07:04:29;;;;;;;3.53;3.33;;;23.30;44.10;;;;;;5041801;28;20226;-74
2023/06/13 07:06:55;;;;;;;3.30;3.10;;;23.30;44.10;;;;;;5039452;28;20446;-74
2023/06/13 07:09:21;;;;;;;3.60;3.40;;;23.40;44.20;;;;;;5042701;28;20246;-73
2023/06/13 07:11:46;;;;;;;4.70;4.40;;;23.40;44.20;;;;;;5036355;28;21604;-73
2023/06/13 07:14:12;;;;;;;3.77;3.57;;;23.30;44.20;;;;;;5036552;28;20217;-74
2023/06/13 07:16:37;;;;;;;3.70;3.50;;;23.40;44.20;;;;;;5031478;28;21083;-73
2023/06/13 07:19:03;;;;;;;4.00;3.80;;;23.30;44.10;;;;;;5037944;28;20222;-73
2023/06/13 07:21:29;;;;;;;3.50;3.30;;;23.40;44.20;;;;;;5037434;28;20218;-73
2023/06/13 07:23:54;;;;;;;3.50;3.30;;;23.40;44.20;;;;;;5043560;28;20259;-73
2023/06/13 07:26:21;;;;;;;3.30;3.10;;;23.40;44.20;;;;;;5037167;28;20218;-73
2023/06/13 07:28:47;;;;;;;3.70;3.50;;;23.40;44.20;;;;;;5034518;28;20271;-73
2023/06/13 07:31:12;;;;;;;3.43;3.20;;;23.40;44.20;;;;;;5036988;28;20545;-73
2023/06/13 07:33:38;;;;;;;3.30;3.10;;;23.40;44.20;;;;;;5043960;28;20218;-73
2023/06/13 07:36:03;;;;;;;3.37;3.17;;;23.40;44.20;;;;;;5041741;28;20627;-71
2023/06/13 07:38:29;;;;;;;3.70;3.50;;;23.40;44.20;;;;;;5042404;28;20232;-73
2023/06/13 07:40:55;;;;;;;3.60;3.40;;;23.40;44.20;;;;;;5038910;28;20217;-73
2023/06/13 07:43:20;;;;;;;3.93;3.73;;;23.40;44.20;;;;;;5040150;28;20214;-73
2023/06/13 07:45:46;;;;;;;4.20;4.00;;;23.40;44.30;;;;;;5038950;28;20222;-73
2023/06/13 07:48:12;;;;;;;3.60;3.40;;;23.40;44.30;;;;;;5036901;28;20590;-73
2023/06/13 07:50:38;;;;;;;3.27;3.07;;;23.40;44.20;;;;;;5041093;28;20595;-73
2023/06/13 07:53:04;;;;;;;3.73;3.53;;;23.40;44.30;;;;;;5040877;28;20225;-72
2023/06/13 07:55:30;;;;;;;3.50;3.30;;;23.40;44.30;;;;;;5035060;28;20471;-74
2023/06/13 07:57:56;;;;;;;3.27;3.07;;;23.40;44.30;;;;;;5039246;28;20609;-74
2023/06/13 08:00:21;;;;;;;3.83;3.63;;;23.40;44.30;;;;;;5038212;28;20257;-73
2023/06/13 08:02:47;;;;;;;3.40;3.20;;;23.40;44.30;;;;;;5040403;28;20320;-73
2023/06/13 08:05:14;;;;;;;3.97;3.67;;;23.40;44.30;;;;;;5038967;28;20529;-74
2023/06/13 08:07:40;;;;;;;3.40;3.20;;;23.40;44.20;;;;;;5041745;28;20700;-73
2023/06/13 08:10:06;;;;;;;3.73;3.50;;;23.40;44.20;;;;;;5039696;28;20470;-73
2023/06/13 08:12:32;;;;;;;3.00;2.90;;;23.40;44.30;;;;;;5042034;28;20233;-73
2023/06/13 08:14:57;;;;;;;3.23;3.07;;;23.40;44.20;;;;;;5042766;28;20284;-74
2023/06/13 08:17:24;;;;;;;3.33;3.13;;;23.40;44.30;;;;;;5039685;28;20333;-73
2023/06/13 08:19:50;;;;;;;3.10;3.00;;;23.40;44.30;;;;;;5041552;28;20216;-73
2023/06/13 08:22:17;;;;;;;3.33;3.13;;;23.40;44.30;;;;;;5041944;28;20446;-73
2023/06/13 08:24:43;;;;;;;3.30;3.10;;;23.40;44.30;;;;;;5041456;28;20462;-73
2023/06/13 08:27:10;;;;;;;3.60;3.40;;;23.40;44.30;;;;;;5035941;28;20455;-73
2023/06/13 08:29:35;;;;;;;3.50;3.30;;;23.40;44.30;;;;;;5037520;28;20227;-73
2023/06/13 08:32:01;;;;;;;3.77;3.57;;;23.40;44.30;;;;;;5041465;28;20494;-73
2023/06/13 08:34:27;;;;;;;3.60;3.40;;;23.40;44.20;;;;;;5036120;28;20272;-74
2023/06/13 08:36:53;;;;;;;3.50;3.30;;;23.50;44.40;;;;;;5040923;28;20459;-73
2023/06/13 08:39:20;;;;;;;3.00;2.90;;;23.40;44.20;;;;;;5038992;28;20558;-73
2023/06/13 08:41:46;;;;;;;3.37;3.17;;;23.50;44.30;;;;;;5038458;28;20315;-73
2023/06/13 08:44:12;;;;;;;3.37;3.17;;;23.40;44.30;;;;;;5041555;28;20487;-73
2023/06/13 08:46:37;;;;;;;3.27;3.17;;;23.40;44.20;;;;;;5037680;28;20311;-73
2023/06/13 08:49:03;;;;;;;3.73;3.53;;;23.50;44.30;;;;;;5040385;28;20221;-73
2023/06/13 08:51:30;;;;;;;3.23;3.03;;;23.50;44.40;;;;;;5039634;28;20218;-73
2023/06/13 08:53:59;;;;;;;3.40;3.20;;;23.50;44.30;;;;;;5040104;28;20380;-73
2023/06/13 08:56:28;;;;;;;3.07;2.97;;;23.50;44.30;;;;;;5033694;28;20443;-73
2023/06/13 08:59:10;;;;;;;3.40;3.20;;;23.50;44.30;;;;;;5040182;28;20994;-73
2023/06/13 09:01:39;;;;;;;3.50;3.30;;;23.50;44.30;;;;;;5040904;28;20463;-73
2023/06/13 09:04:08;;;;;;;3.17;2.87;;;23.40;44.20;;;;;;5038201;28;20463;-73
2023/06/13 09:06:37;;;;;;;3.40;3.20;;;23.50;44.40;;;;;;5034176;28;20502;-73
2023/06/13 09:09:03;;;;;;;3.40;3.20;;;23.50;44.30;;;;;;5038698;28;20471;-73
2023/06/13 09:11:29;;;;;;;3.30;3.10;;;23.50;44.30;;;;;;5036458;28;20443;-73
2023/06/13 09:13:58;;;;;;;2.93;2.77;;;23.50;44.30;;;;;;5038208;28;20445;-73
2023/06/13 09:16:24;;;;;;;3.03;2.83;;;23.50;44.30;;;;;;5038026;28;20455;-73
2023/06/13 09:18:50;;;;;;;3.60;3.40;;;23.50;44.30;;;;;;5041865;28;20468;-73
2023/06/13 09:21:17;;;;;;;3.50;3.30;;;23.50;44.30;;;;;;5035825;28;20452;-73
2023/06/13 09:23:43;;;;;;;3.27;3.07;;;23.50;44.30;;;;;;5038620;28;20254;-73
2023/06/13 09:26:09;;;;;;;2.97;2.87;;;23.50;44.30;;;;;;5034163;28;20574;-73
2023/06/13 09:28:40;;;;;;;3.33;3.03;;;23.50;44.30;;;;;;5035605;28;20707;-73
2023/06/13 09:31:07;;;;;;;3.60;3.40;;;23.50;44.30;;;;;;5037166;28;20470;-73
2023/06/13 09:33:33;;;;;;;3.13;3.00;;;23.50;44.50;;;;;;5043500;28;20455;-75
2023/06/13 09:35:58;;;;;;;3.00;2.87;;;23.50;44.30;;;;;;5035577;28;20471;-74
2023/06/13 09:38:24;;;;;;;3.07;2.93;;;23.50;44.30;;;;;;5038522;28;20527;-74
2023/06/13 09:40:53;;;;;;;3.03;2.90;;;23.50;44.30;;;;;;5038072;28;20218;-74
2023/06/13 09:43:19;;;;;;;3.47;3.27;;;23.50;44.40;;;;;;5038731;28;20447;-73
2023/06/13 09:45:46;;;;;;;2.97;2.87;;;23.50;44.30;;;;;;5036757;28;21004;-73
2023/06/13 09:48:12;;;;;;;3.00;2.87;;;23.50;44.30;;;;;;5040531;28;20452;-73
2023/06/13 09:50:40;;;;;;;3.07;2.87;;;23.50;44.30;;;;;;5028138;28;20466;-73
2023/06/13 09:53:07;;;;;;;2.93;2.83;;;23.50;44.30;;;;;;5038616;28;20226;-73
2023/06/13 09:55:32;;;;;;;3.03;2.90;;;23.50;44.30;;;;;;5036279;28;20448;-74
2023/06/13 09:57:58;;;;;;;3.27;3.10;;;23.50;44.30;;;;;;5039057;28;20498;-73
2023/06/13 10:00:23;;;;;;;3.50;3.30;;;23.50;44.30;;;;;;5032192;28;20278;-73
2023/06/13 10:02:50;;;;;;;3.43;3.33;;;23.50;44.30;;;;;;5036141;28;20253;-73
2023/06/13 10:05:16;;;;;;;3.20;3.00;;;23.50;44.30;;;;;;5034650;28;20237;-73
2023/06/13 10:07:41;;;;;;;3.40;3.20;;;23.50;44.30;;;;;;5035416;28;20440;-73
2023/06/13 10:10:07;;;;;;;3.03;2.83;;;23.50;44.30;;;;;;5037179;28;20242;-73
2023/06/13 10:12:38;;;;;;;2.83;2.73;;;23.50;44.30;;;;;;5039881;28;20249;-74
2023/06/13 10:15:06;;;;;;;3.47;3.27;;;23.50;44.30;;;;;;5033324;28;20810;-73
2023/06/13 10:17:39;;;;;;;3.10;2.90;;;23.50;44.20;;;;;;5039657;28;21001;-74
2023/06/13 10:20:10;;;;;;;3.13;2.93;;;23.50;44.30;;;;;;5042359;28;20470;-73
2023/06/13 10:22:38;;;;;;;3.43;3.23;;;23.50;44.20;;;;;;5042350;28;20458;-73
2023/06/13 10:25:07;;;;;;;3.03;2.93;;;23.50;44.20;;;;;;5040577;28;20449;-72
2023/06/13 10:27:36;;;;;;;3.33;3.13;;;23.50;44.20;;;;;;5041359;28;20496;-74
2023/06/13 10:30:14;;;;;;;3.37;3.17;;;23.50;44.30;;;;;;5042396;28;20521;-74
2023/06/13 10:33:01;;;;;;;3.40;3.23;;;23.60;44.40;;;;;;5043143;28;20459;-73
2023/06/13 10:36:02;;;;;;;2.90;2.80;;;23.50;44.20;;;;;;5037321;28;20456;-73
2023/06/13 10:38:48;;;;;;;2.80;2.60;;;23.60;44.40;;;;;;5039204;28;20482;-73
2023/06/13 10:41:16;;;;;;;3.00;2.90;;;23.60;44.80;;;;;;5038795;28;20530;-73
2023/06/13 10:43:52;;;;;;;3.00;2.90;;;23.50;44.20;;;;;;5040094;28;20443;-73
2023/06/13 10:46:18;;;;;;;3.60;3.40;;;23.60;44.30;;;;;;5033346;28;20469;-73
2023/06/13 10:48:54;;;;;;;2.83;2.73;;;23.60;44.30;;;;;;5040065;28;20824;-73
2023/06/13 10:51:22;;;;;;;3.17;2.97;;;23.60;44.30;;;;;;5041302;28;20753;-73
2023/06/13 10:54:06;;;;;;;3.47;3.27;;;23.60;44.30;;;;;;5042547;28;20657;-73
2023/06/13 10:56:34;;;;;;;3.20;3.00;;;23.50;44.20;;;;;;5038280;28;20464;-73
2023/06/13 10:59:08;;;;;;;3.23;3.03;;;23.60;44.30;;;;;;5041162;28;20562;-74
2023/06/13 11:01:35;;;;;;;3.10;2.90;;;23.60;44.30;;;;;;5036811;28;20963;-73
2023/06/13 11:04:15;;;;;;;3.33;3.20;;;23.50;44.20;;;;;;5040092;28;20436;-74
2023/06/13 11:06:43;;;;;;;3.27;3.07;;;23.60;44.20;;;;;;5041748;28;20462;-73
2023/06/13 11:09:19;;;;;;;2.97;2.87;;;23.60;44.20;;;;;;5043513;28;20455;-73
2023/06/13 11:11:52;;;;;;;3.00;2.90;;;23.60;44.30;;;;;;5038658;28;20518;-73
2023/06/13 11:14:27;;;;;;;3.80;3.60;;;23.60;44.20;;;;;;5040438;28;21053;-73
2023/06/13 11:16:54;;;;;;;3.80;3.60;;;23.60;44.30;;;;;;5036721;28;20480;-73
2023/06/13 11:19:21;;;;;;;3.70;3.50;;;23.60;44.20;;;;;;5042163;28;20494;-73
2023/06/13 11:22:10;;;;;;;3.23;3.03;;;23.60;44.20;;;;;;5041437;28;20463;-73
2023/06/13 11:24:36;;;;;;;3.10;2.90;;;23.60;44.20;;;;;;5040149;28;20504;-73
2023/06/13 11:27:06;;;;;;;2.80;2.70;;;23.60;44.30;;;;;;5039665;28;20945;-73
2023/06/13 11:29:33;;;;;;;3.43;3.23;;;23.60;44.20;;;;;;5037659;28;20259;-73
2023/06/13 11:32:02;;;;;;;3.53;3.27;;;23.60;44.20;;;;;;5039585;28;20455;-73
2023/06/13 11:34:32;;;;;;;2.77;2.67;;;23.60;44.20;;;;;;5039607;28;20472;-73
2023/06/13 11:37:14;;;;;;;3.20;3.00;;;23.60;44.20;;;;;;5040001;28;21438;-73
2023/06/13 11:39:41;;;;;;;3.40;3.20;;;23.60;44.20;;;;;;5040009;28;20506;-73
2023/06/13 11:42:08;;;;;;;2.63;2.50;;;23.60;44.20;;;;;;5039370;28;20973;-73
2023/06/13 11:44:37;;;;;;;3.33;3.13;;;23.60;44.20;;;;;;5037852;28;20501;-74
2023/06/13 11:47:03;;;;;;;3.10;3.00;;;23.60;44.20;;;;;;5040173;28;20455;-74
2023/06/13 11:49:29;;;;;;;3.20;3.00;;;23.60;44.20;;;;;;5041314;28;20431;-73
2023/06/13 11:51:54;;;;;;;3.13;3.03;;;23.60;44.20;;;;;;5040154;28;20820;-74
2023/06/13 11:54:29;;;;;;;2.60;2.50;;;23.60;44.20;;;;;;5038510;28;20221;-73
2023/06/13 11:56:54;;;;;;;3.93;3.53;;;23.60;44.20;;;;;;5042157;28;20233;-73
2023/06/13 11:59:22;;;;;;;3.87;3.57;;;23.60;44.10;;;;;;5041072;28;21019;-73
2023/06/13 12:01:52;;;;;;;3.13;2.93;;;23.60;44.20;;;;;;5038710;28;20245;-73
2023/06/13 12:04:22;;;;;;;3.13;2.97;;;23.60;44.10;;;;;;5040440;28;21009;-75
2023/06/13 12:06:48;;;;;;;3.40;3.20;;;23.60;44.10;;;;;;5037957;28;20459;-73
2023/06/13 12:09:14;;;;;;;3.00;2.87;;;23.60;44.10;;;;;;5034415;28;20469;-73
2023/06/13 12:11:40;;;;;;;3.27;3.07;;;23.60;44.20;;;;;;5038297;28;20229;-73
2023/06/13 12:14:06;;;;;;;3.20;3.00;;;23.70;44.10;;;;;;5036925;28;20447;-73
2023/06/13 12:16:36;;;;;;;3.40;3.30;;;23.70;44.20;;;;;;5043490;28;20965;-75
2023/06/13 12:19:04;;;;;;;3.07;2.73;;;23.70;44.20;;;;;;5039914;28;20325;-75
2023/06/13 12:21:32;;;;;;;2.93;2.83;;;23.70;44.20;;;;;;5041605;28;21242;-74
2023/06/13 12:23:59;;;;;;;3.40;3.30;;;23.70;44.20;;;;;;5037787;28;20455;-73
2023/06/13 12:26:26;;;;;;;2.80;2.70;;;23.60;44.10;;;;;;5038355;28;20530;-74
2023/06/13 12:28:55;;;;;;;3.40;3.20;;;23.70;44.10;;;;;;5035263;28;21007;-73
2023/06/13 12:31:33;;;;;;;3.50;3.30;;;23.60;44.10;;;;;;5038445;28;20526;-74
2023/06/13 12:34:26;;;;;;;3.13;3.03;;;23.60;44.10;;;;;;5028316;28;20462;-74
2023/06/13 12:36:54;;;;;;;3.27;3.07;;;23.70;44.10;;;;;;5039876;28;20474;-74
2023/06/13 12:39:21;;;;;;;3.90;3.70;;;23.60;44.00;;;;;;5040473;28;21020;-76
2023/06/13 12:41:51;;;;;;;3.37;3.17;;;23.70;44.10;;;;;;5033930;28;20455;-75
2023/06/13 12:44:20;;;;;;;3.10;2.90;;;23.60;44.10;;;;;;5032983;28;20447;-74
2023/06/13 12:46:46;;;;;;;3.47;3.27;;;23.60;44.10;;;;;;5045658;28;21899;-73
2023/06/13 12:49:14;;;;;;;3.10;2.93;;;23.70;44.10;;;;;;5037366;28;20464;-73
2023/06/13 12:51:45;;;;;;;3.57;3.37;;;23.70;44.10;;;;;;5035860;28;21002;-73